Latest Weather Observations for Neptune Island

IDS60801

Issued at 1:02 pm CDT Monday 26 January 2015 (issued every 30 minutes, with the page automatically refreshed every 10 minutes)

About weather observations | Map of weather stations | Latest weather observations for SA | Other Formats
Station Details ID: 018115 Name: NEPTUNE ISLAND Lat: -35.34 Lon: 136.12 Height: 32.0 m
Data from the previous 72 hours. | See also: Recent months at Neptune Island
Date/Time
CDT
Temp
°C
App
Temp
°C
Dew
Point
Rel
Hum
%
Delta-T
°C
Wind Press
QNH
hPa
Press
MSL
hPa
Rain
since 9 am
mm
Dir
 
Spd
km/h
Gust
km/h
Spd
kts
Gust
kts
26/01:00pm 17.6 13.6 9.2 58 4.4 S 20 24 11 13 1019.2 1019.1 0.0
26/12:30pm 17.1 12.7 8.8 58 4.3 SSE 22 28 12 15 1019.1 1019.0 0.0
26/12:00pm 17.6 12.7 10.0 61 4.0 SSE 26 33 14 18 1019.0 1018.9 0.0
26/11:30am 18.2 13.1 9.3 56 4.7 S 26 32 14 17 1019.0 1018.9 0.0
26/11:00am 16.6 11.1 9.3 62 3.8 S 28 33 15 18 1019.0 1018.9 0.0
26/10:30am 16.5 11.4 9.2 62 3.8 S 26 35 14 19 1018.9 1018.8 0.0
26/10:00am 18.3 13.5 8.8 54 4.9 S 24 28 13 15 1019.2 1019.1 0.0
26/09:30am 17.0 12.5 8.4 57 4.4 S 22 28 12 15 1019.1 1019.0 0.0
26/09:00am 16.8 11.8 8.0 56 4.4 S 24 28 13 15 1019.0 1018.9 0.0
26/08:30am 16.4 12.0 7.6 56 4.4 S 20 32 11 17 1019.0 1018.9 0.0
26/08:00am 16.2 11.0 7.4 56 4.4 S 24 30 13 16 1018.6 1018.5 0.0
26/07:30am 16.0 11.1 8.5 61 3.8 SSE 24 30 13 16 1018.3 1018.2 0.0
26/07:00am 15.9 10.8 9.1 64 3.5 SSE 26 33 14 18 1018.0 1017.9 0.0
26/06:30am 15.9 11.3 9.6 66 3.3 SSE 24 30 13 16 1017.9 1017.8 0.0
26/06:00am 15.9 11.7 9.8 67 3.2 SSE 22 28 12 15 1017.5 1017.4 0.0
26/05:30am 15.6 11.9 9.3 66 3.2 SSE 19 24 10 13 1017.3 1017.2 0.0
26/05:00am 15.5 11.5 9.0 65 3.3 SE 20 24 11 13 1017.1 1017.0 0.0
26/04:30am 15.9 10.7 10.2 69 3.0 S 28 35 15 19 1016.7 1016.6 0.0
26/04:00am 15.6 11.1 10.2 70 2.8 SSE 24 30 13 16 1016.7 1016.6 0.0
26/03:30am 15.7 11.5 9.8 68 3.1 SSE 22 28 12 15 1016.6 1016.5 0.0
26/03:00am 15.8 11.6 9.9 68 3.1 SSE 22 30 12 16 1016.4 1016.3 0.0
26/02:30am 16.1 11.2 10.0 67 3.2 SSE 26 30 14 16 1016.6 1016.5 0.0
26/02:00am 15.9 11.2 9.3 65 3.4 S 24 32 13 17 1016.7 1016.6 0.0
26/01:30am 16.0 10.3 9.7 66 3.3 S 30 35 16 19 1016.7 1016.6 0.0
26/01:00am 16.0 10.0 10.1 68 3.1 S 32 37 17 20 1016.8 1016.7 0.0
26/12:30am 16.1 12.4 9.5 65 3.4 SSE 19 28 10 15 1017.1 1017.0 0.0
26/12:00am 16.0 9.6 9.4 65 3.4 S 33 39 18 21 1017.1 1017.0 0.0
 
Date/Time
CDT
Temp
°C
App
Temp
°C
Dew
Point
Rel
Hum
%
Delta-T
°C
Wind Press
QNH
hPa
Press
MSL
hPa
Rain
since 9 am
mm
Dir
 
Spd
km/h
Gust
km/h
Spd
kts
Gust
kts
25/11:30pm 16.3 10.8 9.3 63 3.6 S 28 35 15 19 1017.3 1017.2 0.0
25/11:00pm 16.0 9.9 9.7 66 3.3 S 32 39 17 21 1017.2 1017.1 0.0
25/10:30pm 16.2 10.5 8.4 60 4.0 S 28 35 15 19 1017.1 1017.0 0.0
25/10:00pm 16.3 10.5 9.5 64 3.5 SSW 30 35 16 19 1016.8 1016.7 0.0
25/09:30pm 16.1 9.6 8.3 60 4.0 SSW 32 37 17 20 1016.6 1016.5 0.0
25/09:00pm 16.1 9.8 8.8 62 3.7 SSW 32 39 17 21 1016.4 1016.3 0.0
25/08:30pm 16.2 8.7 7.9 58 4.2 SSW 37 44 20 24 1016.1 1016.0 0.0
25/08:00pm 16.5 9.6 9.0 61 3.9 SSW 35 44 19 24 1015.9 1015.8 0.0
25/07:30pm 16.6 9.2 9.8 64 3.6 SSW 39 44 21 24 1015.6 1015.5 0.0
25/07:00pm 17.4 10.0 8.3 55 4.7 SSW 37 44 20 24 1015.6 1015.5 0.0
25/06:30pm 17.3 10.4 9.0 58 4.3 SSW 35 44 19 24 1015.3 1015.3 0.0
25/06:00pm 17.4 10.7 9.8 61 4.0 SSW 35 43 19 23 1015.2 1015.2 0.0
25/05:30pm 17.4 9.9 9.6 60 4.1 SSW 39 46 21 25 1015.1 1015.1 0.0
25/05:00pm 18.6 11.5 9.4 55 4.8 SSW 37 44 20 24 1015.2 1015.2 0.0
25/04:30pm 19.0 12.5 8.9 52 5.3 SSW 33 44 18 24 1015.2 1015.2 0.0
25/04:00pm 19.6 13.5 10.3 55 5.0 SSW 33 43 18 23 1015.1 1015.1 0.0
25/03:30pm 19.4 12.8 8.4 49 5.7 SSW 33 43 18 23 1015.1 1015.1 0.0
25/03:00pm 19.0 12.6 8.6 51 5.4 SSW 32 41 17 22 1015.3 1015.3 0.0
25/02:30pm 19.1 12.3 7.8 48 5.8 SW 33 41 18 22 1015.5 1015.4 0.0
25/02:00pm 18.7 11.9 7.5 48 5.7 SW 33 41 18 22 1015.5 1015.4 0.0
25/01:30pm 18.8 11.7 8.2 50 5.5 SW 35 41 19 22 1015.8 1015.7 0.0
25/01:00pm 18.0 10.9 9.4 57 4.5 SW 37 44 20 24 1015.8 1015.7 0.0
25/12:30pm 17.1 10.3 9.3 60 4.1 SSW 35 44 19 24 1015.7 1015.6 0.0
25/12:00pm 18.2 11.1 7.9 51 5.3 SW 35 44 19 24 1015.6 1015.5 0.0
25/11:30am 17.7 11.4 7.4 51 5.2 SW 30 39 16 21 1015.3 1015.3 0.0
25/11:00am 16.9 11.3 7.3 53 4.8 SW 26 33 14 18 1015.2 1015.2 0.0
25/10:30am 17.1 11.4 6.9 51 5.1 SW 26 33 14 18 1015.3 1015.3 0.0
25/10:00am 16.5 9.3 6.1 50 5.1 SW 33 44 18 24 1015.0 1015.0 0.0
25/09:30am 16.4 8.7 7.1 54 4.6 SW 37 44 20 24 1014.7 1014.7 0.0
25/09:00am 16.5 9.0 8.0 57 4.3 SW 37 43 20 23 1014.2 1014.2 0.2
25/08:30am 16.3 10.0 8.8 61 3.8 SW 32 41 17 22 1013.7 1013.7 0.2
25/08:00am 16.2 10.0 7.9 58 4.2 SW 30 35 16 19 1013.4 1013.4 0.2
25/07:30am 15.9 10.5 7.9 59 4.0 SW 26 33 14 18 1013.1 1013.1 0.2
25/07:00am 15.6 10.7 8.6 63 3.6 SSW 24 32 13 17 1012.6 1012.6 0.2
25/06:30am 15.8 10.7 7.8 59 4.0 SSW 24 30 13 16 1012.1 1012.1 0.2
25/06:00am 15.8 9.5 7.6 58 4.1 SW 30 39 16 21 1011.8 1011.8 0.2
25/05:30am 15.4 8.6 6.7 56 4.3 SSW 32 39 17 21 1011.2 1011.1 0.2
25/05:00am 15.6 8.7 7.4 58 4.1 SSW 33 39 18 21 1011.0 1010.9 0.2
25/04:30am 15.5 8.2 7.3 58 4.1 SSW 35 43 19 23 1010.7 1010.6 0.2
25/04:00am 15.5 8.6 6.5 55 4.4 SSW 32 43 17 23 1010.8 1010.7 0.2
25/03:30am 15.6 8.9 8.1 61 3.8 SSW 33 43 18 23 1010.4 1010.3 0.2
25/03:00am 15.8 9.0 9.2 65 3.4 SW 35 43 19 23 1010.4 1010.3 0.2
25/02:30am 15.7 9.2 6.7 55 4.4 SW 30 39 16 21 1010.9 1010.8 0.2
25/02:00am 16.1 7.9 8.3 60 4.0 SW 41 48 22 26 1010.7 1010.6 0.2
25/01:30am 15.9 7.4 8.4 61 3.8 SW 43 50 23 27 1010.7 1010.6 0.2
25/01:00am 16.0 8.4 9.2 64 3.5 SSW 39 50 21 27 1010.6 1010.5 0.2
25/12:30am 16.2 8.0 10.3 68 3.1 SSW 44 54 24 29 1010.6 1010.5 0.2
25/12:00am 16.6 8.1 9.3 62 3.8 SW 44 52 24 28 1010.5 1010.4 0.2
 
Date/Time
CDT
Temp
°C
App
Temp
°C
Dew
Point
Rel
Hum
%
Delta-T
°C
Wind Press
QNH
hPa
Press
MSL
hPa
Rain
since 9 am
mm
Dir
 
Spd
km/h
Gust
km/h
Spd
kts
Gust
kts
24/11:30pm 16.7 8.2 10.5 67 3.3 SW 46 56 25 30 1010.4 1010.3 0.2
24/11:00pm 16.6 7.2 10.0 65 3.5 SW 50 57 27 31 1010.2 1010.1 0.2
24/10:30pm 16.7 7.3 10.1 65 3.5 SW 50 59 27 32 1009.9 1009.8 0.2
24/10:00pm 17.2 8.2 11.7 70 3.0 SW 50 57 27 31 1009.6 1009.5 0.2
24/09:30pm 17.0 8.9 11.9 72 2.8 SW 46 57 25 31 1009.2 1009.1 0.2
24/09:00pm 16.9 9.0 12.8 77 2.3 SW 46 56 25 30 1008.9 1008.8 0.2
24/08:30pm 17.3 8.6 12.6 74 2.6 SW 50 63 27 34 1008.4 1008.3 0.2
24/08:00pm 17.7 10.0 13.4 76 2.4 SW 46 59 25 32 1007.8 1007.7 0.2
24/07:30pm 18.3 9.1 13.4 73 2.8 WSW 54 61 29 33 1007.5 1007.4 0.2
24/07:00pm 18.6 10.7 13.7 73 2.8 WSW 48 59 26 32 1007.0 1006.9 0.2
24/06:30pm 18.6 12.1 14.1 75 2.6 WSW 41 50 22 27 1006.7 1006.6 0.2
24/06:00pm 17.1 8.2 13.2 78 2.2 WSW 52 63 28 34 1006.6 1006.5 0.2
24/05:48pm 18.9 10.8 13.3 70 3.2 W 48 72 26 39 1006.3 1006.2 0.0
24/05:30pm 20.5 14.0 15.1 71 3.2 W 43 50 23 27 1006.4 1006.3 0.0
24/05:00pm 20.7 13.8 14.1 66 3.8 W 43 52 23 28 1006.6 1006.5 0.0
24/04:30pm 21.4 16.0 15.9 71 3.3 WNW 39 50 21 27 1006.7 1006.6 0.0
24/04:00pm 21.3 15.2 15.2 68 3.6 W 41 50 22 27 1006.6 1006.5 0.0
24/03:30pm 20.3 14.0 14.7 70 3.3 W 41 50 22 27 1007.0 1006.9 0.0
24/03:00pm 21.2 15.0 14.8 67 3.8 WNW 41 48 22 26 1007.0 1006.9 0.0
24/02:30pm 21.4 14.8 14.8 66 3.9 WNW 43 54 23 29 1007.1 1007.0 0.0
24/02:00pm 21.0 14.9 14.2 65 4.0 WNW 39 48 21 26 1007.2 1007.1 0.0
24/01:30pm 21.0 14.7 13.4 62 4.4 WNW 39 50 21 27 1007.3 1007.2 0.0
24/01:00pm 21.2 14.9 12.3 57 5.0 WNW 37 46 20 25 1007.3 1007.2 0.0
24/12:30pm 20.9 16.0 13.6 63 4.2 WNW 32 39 17 21 1007.6 1007.5 0.0
24/12:00pm 20.5 15.8 13.2 63 4.2 WNW 30 35 16 19 1007.6 1007.5 0.0
24/11:30am 20.4 14.6 12.6 61 4.4 W 35 43 19 23 1007.6 1007.5 0.0
24/11:00am 19.8 13.7 14.0 69 3.3 W 39 44 21 24 1007.6 1007.5 0.0
24/10:30am 19.6 15.3 13.3 67 3.6 WNW 28 33 15 18 1007.8 1007.7 0.0
24/10:00am 19.6 15.8 13.5 68 3.5 WNW 26 32 14 17 1007.9 1007.8 0.0
24/09:30am 19.6 15.9 12.6 64 3.9 W 24 32 13 17 1007.9 1007.8 0.0
24/09:00am 19.0 14.0 12.3 65 3.7 W 30 35 16 19 1007.9 1007.8 0.0
24/08:30am 18.7 13.2 12.5 67 3.5 W 33 39 18 21 1007.9 1007.8 0.0
24/08:00am 18.1 13.1 12.3 69 3.2 W 30 37 16 20 1007.6 1007.5 0.0
24/07:30am 17.9 14.3 13.0 73 2.8 W 24 28 13 15 1007.4 1007.3 0.0
24/07:00am 17.6 13.6 12.9 74 2.6 W 26 30 14 16 1007.2 1007.1 0.0
24/06:30am 17.6 12.8 12.9 74 2.6 WSW 30 35 16 19 1007.1 1007.0 0.0
24/06:00am 17.6 12.7 12.5 72 2.8 W 30 35 16 19 1007.1 1007.0 0.0
24/05:30am 17.6 13.8 12.3 71 2.9 W 24 28 13 15 1007.0 1006.9 0.0
24/05:00am 17.6 12.1 11.8 69 3.2 W 32 41 17 22 1007.2 1007.1 0.0
24/04:30am 17.4 12.7 10.5 64 3.7 WSW 26 30 14 16 1007.5 1007.4 0.0
24/04:00am 17.4 11.3 10.3 63 3.8 WSW 33 43 18 23 1007.8 1007.7 0.0
24/03:30am 17.4 11.8 11.4 68 3.3 WSW 32 35 17 19 1008.1 1008.0 0.0
24/03:00am 17.3 11.3 10.9 66 3.5 WSW 33 41 18 22 1008.4 1008.3 0.0
24/02:30am 17.2 11.5 11.2 68 3.3 WSW 32 37 17 20 1008.6 1008.5 0.0
24/02:00am 17.2 10.8 11.9 71 2.9 WSW 37 41 20 22 1008.7 1008.6 0.0
24/01:30am 17.3 12.0 12.6 74 2.6 WSW 32 37 17 20 1009.0 1008.9 0.0
24/01:00am 17.3 12.8 12.6 74 2.6 WSW 28 32 15 17 1009.2 1009.1 0.0
24/12:30am 17.3 13.5 12.4 73 2.7 WSW 24 30 13 16 1009.3 1009.2 0.0
24/12:00am 17.3 12.7 12.2 72 2.8 WSW 28 32 15 17 1009.4 1009.3 0.0
 
Date/Time
CDT
Temp
°C
App
Temp
°C
Dew
Point
Rel
Hum
%
Delta-T
°C
Wind Press
QNH
hPa
Press
MSL
hPa
Rain
since 9 am
mm
Dir
 
Spd
km/h
Gust
km/h
Spd
kts
Gust
kts
23/11:30pm 17.5 13.6 12.2 71 2.9 WSW 24 28 13 15 1009.4 1009.3 0.0
23/11:00pm 17.5 14.1 12.4 72 2.8 W 22 28 12 15 1009.6 1009.5 0.0
23/10:30pm 17.5 14.1 12.6 73 2.7 WSW 22 26 12 14 1009.5 1009.4 0.0
23/10:00pm 17.5 13.8 12.6 73 2.7 WSW 24 28 13 15 1009.5 1009.4 0.0
23/09:30pm 17.8 14.2 12.9 73 2.7 WSW 24 26 13 14 1009.6 1009.5 0.0
23/09:00pm 17.9 14.2 12.6 71 3.0 SW 24 28 13 15 1009.4 1009.3 0.0
23/08:30pm 18.3 14.7 13.0 71 3.0 SW 24 30 13 16 1009.5 1009.4 0.0
23/08:00pm 18.7 15.2 13.3 71 3.1 SW 24 28 13 15 1009.6 1009.5 0.0
23/07:30pm 19.2 15.6 13.2 68 3.4 SW 24 30 13 16 1009.3 1009.2 0.0
23/07:00pm 19.9 15.5 12.9 64 4.0 WSW 28 32 15 17 1009.1 1009.0 0.0
23/06:30pm 19.5 15.7 12.5 64 3.9 WSW 24 28 13 15 1009.2 1009.1 0.0
23/06:00pm 20.1 16.1 11.8 59 4.6 WSW 24 28 13 15 1009.4 1009.3 0.0
23/05:30pm 20.1 16.3 13.6 66 3.7 WSW 26 28 14 15 1009.4 1009.3 0.0
23/05:00pm 20.1 17.1 13.8 67 3.6 WSW 22 28 12 15 1009.5 1009.4 0.0
23/04:30pm 20.3 16.5 12.5 61 4.4 SW 24 30 13 16 1009.6 1009.5 0.0
23/04:00pm 20.8 17.1 12.8 60 4.5 WSW 24 30 13 16 1010.0 1009.9 0.0
23/03:30pm 21.6 18.3 14.0 62 4.4 WSW 24 28 13 15 1010.0 1009.9 0.0
23/03:00pm 21.0 18.5 13.4 62 4.4 WSW 19 22 10 12 1010.2 1010.1 0.0
23/02:30pm 20.5 18.6 13.0 62 4.3 WSW 15 20 8 11 1010.5 1010.4 0.0
23/02:00pm 20.4 17.6 13.1 63 4.2 SW 20 24 11 13 1010.6 1010.5 0.0
23/01:30pm 20.3 16.9 13.7 66 3.8 SW 24 32 13 17 1010.7 1010.6 0.0

Other Formats:

Comma delimited format used in spreadsheet applications
http://www.bom.gov.au/fwo/IDS60801/IDS60801.94804.axf

JavaScript Object Notation format (JSON) in row-major order
http://www.bom.gov.au/fwo/IDS60801/IDS60801.94804.json